sensor_id;sensor_type;location;lat;lon;timestamp;pressure;altitude;pressure_sealevel;temperature;humidity
74722;BME280;63470;49.826;6.740;2022-10-17T00:02:15;100513.16;;;12.37;68.95
74722;BME280;63470;49.826;6.740;2022-10-17T00:04:44;100514.06;;;12.34;68.97
74722;BME280;63470;49.826;6.740;2022-10-17T00:07:13;100511.29;;;12.32;68.98
74722;BME280;63470;49.826;6.740;2022-10-17T00:09:48;100512.33;;;12.29;69.01
74722;BME280;63470;49.826;6.740;2022-10-17T00:12:13;100507.81;;;12.27;69.01
74722;BME280;63470;49.826;6.740;2022-10-17T00:14:46;100506.77;;;12.24;69.00
74722;BME280;63470;49.826;6.740;2022-10-17T00:17:20;100508.46;;;12.23;69.00
74722;BME280;63470;49.826;6.740;2022-10-17T00:19:46;100509.08;;;12.20;69.06
74722;BME280;63470;49.826;6.740;2022-10-17T00:22:19;100507.16;;;12.17;69.15
74722;BME280;63470;49.826;6.740;2022-10-17T00:24:47;100508.16;;;12.17;69.14
74722;BME280;63470;49.826;6.740;2022-10-17T00:27:19;100504.42;;;12.13;69.15
74722;BME280;63470;49.826;6.740;2022-10-17T00:29:50;100507.23;;;12.08;69.19
74722;BME280;63470;49.826;6.740;2022-10-17T00:32:19;100506.02;;;12.03;69.14
74722;BME280;63470;49.826;6.740;2022-10-17T00:34:50;100511.58;;;11.96;69.14
74722;BME280;63470;49.826;6.740;2022-10-17T00:37:21;100514.41;;;11.91;69.25
74722;BME280;63470;49.826;6.740;2022-10-17T00:39:50;100516.06;;;11.91;69.28
74722;BME280;63470;49.826;6.740;2022-10-17T00:42:23;100515.83;;;11.94;69.23
74722;BME280;63470;49.826;6.740;2022-10-17T00:45:05;100518.23;;;12.00;69.12
74722;BME280;63470;49.826;6.740;2022-10-17T00:47:21;100515.91;;;12.04;69.02
74722;BME280;63470;49.826;6.740;2022-10-17T00:49:52;100523.97;;;12.06;68.98
74722;BME280;63470;49.826;6.740;2022-10-17T00:52:27;100517.52;;;12.07;68.94
74722;BME280;63470;49.826;6.740;2022-10-17T00:55:08;100524.39;;;12.06;68.96
74722;BME280;63470;49.826;6.740;2022-10-17T00:57:24;100527.93;;;12.04;68.97
74722;BME280;63470;49.826;6.740;2022-10-17T00:59:56;100520.36;;;12.01;68.97
74722;BME280;63470;49.826;6.740;2022-10-17T01:02:28;100530.20;;;12.00;68.93
74722;BME280;63470;49.826;6.740;2022-10-17T01:04:55;100532.28;;;11.95;69.03
74722;BME280;63470;49.826;6.740;2022-10-17T01:07:28;100533.72;;;11.93;69.09
74722;BME280;63470;49.826;6.740;2022-10-17T01:09:56;100529.03;;;11.87;69.19
74722;BME280;63470;49.826;6.740;2022-10-17T01:15:04;100530.68;;;11.77;69.29
74722;BME280;63470;49.826;6.740;2022-10-17T01:20:39;100533.66;;;11.67;69.37
74722;BME280;63470;49.826;6.740;2022-10-17T01:25:13;100534.12;;;11.60;69.25
74722;BME280;63470;49.826;6.740;2022-10-17T01:27:47;100537.00;;;11.56;69.25
74722;BME280;63470;49.826;6.740;2022-10-17T01:32:34;100538.64;;;11.46;69.27
74722;BME280;63470;49.826;6.740;2022-10-17T01:35:09;100543.41;;;11.43;69.32
74722;BME280;63470;49.826;6.740;2022-10-17T01:40:08;100541.73;;;11.38;69.42
74722;BME280;63470;49.826;6.740;2022-10-17T01:42:35;100542.89;;;11.39;69.43
74722;BME280;63470;49.826;6.740;2022-10-17T01:45:10;100539.22;;;11.40;69.41
74722;BME280;63470;49.826;6.740;2022-10-17T01:47:32;100532.17;;;11.43;69.39
74722;BME280;63470;49.826;6.740;2022-10-17T01:50:09;100532.88;;;11.45;69.37
74722;BME280;63470;49.826;6.740;2022-10-17T01:52:37;100532.83;;;11.48;69.33
74722;BME280;63470;49.826;6.740;2022-10-17T01:55:07;100532.88;;;11.49;69.30
74722;BME280;63470;49.826;6.740;2022-10-17T01:57:41;100528.25;;;11.51;69.30
74722;BME280;63470;49.826;6.740;2022-10-17T02:00:05;100530.31;;;11.51;69.27
74722;BME280;63470;49.826;6.740;2022-10-17T02:02:34;100526.52;;;11.50;69.26
74722;BME280;63470;49.826;6.740;2022-10-17T02:05:04;100529.62;;;11.45;69.35
74722;BME280;63470;49.826;6.740;2022-10-17T02:07:34;100536.58;;;11.41;69.49
74722;BME280;63470;49.826;6.740;2022-10-17T02:10:11;100541.31;;;11.38;69.53
74722;BME280;63470;49.826;6.740;2022-10-17T02:12:53;100533.20;;;11.33;69.67
74722;BME280;63470;49.826;6.740;2022-10-17T02:15:15;100530.72;;;11.34;69.64
74722;BME280;63470;49.826;6.740;2022-10-17T02:20:19;100534.62;;;11.39;69.46
74722;BME280;63470;49.826;6.740;2022-10-17T02:25:14;100538.86;;;11.43;69.31
74722;BME280;63470;49.826;6.740;2022-10-17T02:27:52;100542.63;;;11.43;69.30
74722;BME280;63470;49.826;6.740;2022-10-17T02:30:31;100538.45;;;11.43;69.25
74722;BME280;63470;49.826;6.740;2022-10-17T02:32:43;100539.72;;;11.40;69.24
74722;BME280;63470;49.826;6.740;2022-10-17T02:35:12;100539.97;;;11.40;69.22
74722;BME280;63470;49.826;6.740;2022-10-17T02:37:37;100539.61;;;11.37;69.26
74722;BME280;63470;49.826;6.740;2022-10-17T02:40:11;100540.13;;;11.34;69.34
74722;BME280;63470;49.826;6.740;2022-10-17T02:42:42;100542.31;;;11.31;69.40
74722;BME280;63470;49.826;6.740;2022-10-17T02:45:08;100541.12;;;11.28;69.48
74722;BME280;63470;49.826;6.740;2022-10-17T02:50:11;100540.50;;;11.21;69.53
74722;BME280;63470;49.826;6.740;2022-10-17T02:55:17;100537.66;;;11.17;69.42
74722;BME280;63470;49.826;6.740;2022-10-17T02:57:53;100538.10;;;11.14;69.44
74722;BME280;63470;49.826;6.740;2022-10-17T03:00:16;100540.27;;;11.12;69.43
74722;BME280;63470;49.826;6.740;2022-10-17T03:02:46;100538.32;;;11.10;69.46
74722;BME280;63470;49.826;6.740;2022-10-17T03:05:14;100544.52;;;11.11;69.45
74722;BME280;63470;49.826;6.740;2022-10-17T03:07:46;100543.61;;;11.11;69.48
74722;BME280;63470;49.826;6.740;2022-10-17T03:10:14;100540.27;;;11.12;69.42
74722;BME280;63470;49.826;6.740;2022-10-17T03:12:42;100538.46;;;11.13;69.41
74722;BME280;63470;49.826;6.740;2022-10-17T03:15:14;100541.08;;;11.14;69.34
74722;BME280;63470;49.826;6.740;2022-10-17T03:17:45;100542.45;;;11.16;69.26
74722;BME280;63470;49.826;6.740;2022-10-17T03:20:16;100541.57;;;11.13;69.23
74722;BME280;63470;49.826;6.740;2022-10-17T03:22:44;100536.91;;;11.09;69.28
74722;BME280;63470;49.826;6.740;2022-10-17T03:25:15;100541.56;;;11.03;69.36
74722;BME280;63470;49.826;6.740;2022-10-17T03:27:45;100545.49;;;10.97;69.47
74722;BME280;63470;49.826;6.740;2022-10-17T03:30:16;100559.97;;;10.96;69.50
74722;BME280;63470;49.826;6.740;2022-10-17T03:32:46;100563.47;;;10.94;69.50
74722;BME280;63470;49.826;6.740;2022-10-17T03:35:19;100566.59;;;10.93;69.47
74722;BME280;63470;49.826;6.740;2022-10-17T03:37:47;100562.66;;;10.91;69.44
74722;BME280;63470;49.826;6.740;2022-10-17T03:40:21;100559.35;;;10.86;69.47
74722;BME280;63470;49.826;6.740;2022-10-17T03:42:51;100564.90;;;10.83;69.54
74722;BME280;63470;49.826;6.740;2022-10-17T03:45:24;100571.95;;;10.82;69.59
74722;BME280;63470;49.826;6.740;2022-10-17T03:47:57;100568.62;;;10.83;69.55
74722;BME280;63470;49.826;6.740;2022-10-17T03:50:25;100556.73;;;10.84;69.45
74722;BME280;63470;49.826;6.740;2022-10-17T03:52:52;100553.27;;;10.83;69.39
74722;BME280;63470;49.826;6.740;2022-10-17T03:55:26;100556.28;;;10.79;69.44
74722;BME280;63470;49.826;6.740;2022-10-17T03:57:56;100561.70;;;10.76;69.48
74722;BME280;63470;49.826;6.740;2022-10-17T04:00:22;100565.83;;;10.76;69.47
74722;BME280;63470;49.826;6.740;2022-10-17T04:02:52;100568.57;;;10.74;69.52
74722;BME280;63470;49.826;6.740;2022-10-17T04:05:25;100569.92;;;10.77;69.51
74722;BME280;63470;49.826;6.740;2022-10-17T04:07:57;100575.09;;;10.79;69.42
74722;BME280;63470;49.826;6.740;2022-10-17T04:10:26;100573.81;;;10.78;69.39
74722;BME280;63470;49.826;6.740;2022-10-17T04:12:54;100567.47;;;10.75;69.37
74722;BME280;63470;49.826;6.740;2022-10-17T04:15:27;100573.62;;;10.72;69.38
74722;BME280;63470;49.826;6.740;2022-10-17T04:17:59;100579.36;;;10.67;69.52
74722;BME280;63470;49.826;6.740;2022-10-17T04:20:28;100579.27;;;10.61;69.64
74722;BME280;63470;49.826;6.740;2022-10-17T04:23:01;100579.55;;;10.58;69.72
74722;BME280;63470;49.826;6.740;2022-10-17T04:25:30;100586.15;;;10.56;69.73
74722;BME280;63470;49.826;6.740;2022-10-17T04:28:02;100585.50;;;10.58;69.70
74722;BME280;63470;49.826;6.740;2022-10-17T04:30:33;100582.12;;;10.58;69.66
74722;BME280;63470;49.826;6.740;2022-10-17T04:32:58;100579.95;;;10.59;69.59
74722;BME280;63470;49.826;6.740;2022-10-17T04:35:29;100581.98;;;10.62;69.57
74722;BME280;63470;49.826;6.740;2022-10-17T04:37:59;100587.33;;;10.63;69.57
74722;BME280;63470;49.826;6.740;2022-10-17T04:40:30;100585.41;;;10.66;69.54
74722;BME280;63470;49.826;6.740;2022-10-17T04:43:00;100578.95;;;10.68;69.50
74722;BME280;63470;49.826;6.740;2022-10-17T04:45:31;100574.06;;;10.69;69.44
74722;BME280;63470;49.826;6.740;2022-10-17T04:48:01;100569.12;;;10.67;69.37
74722;BME280;63470;49.826;6.740;2022-10-17T04:50:31;100568.84;;;10.64;69.41
74722;BME280;63470;49.826;6.740;2022-10-17T04:53:04;100569.81;;;10.58;69.47
74722;BME280;63470;49.826;6.740;2022-10-17T04:55:35;100574.31;;;10.53;69.55
74722;BME280;63470;49.826;6.740;2022-10-17T04:58:06;100580.94;;;10.51;69.56
74722;BME280;63470;49.826;6.740;2022-10-17T05:00:39;100582.67;;;10.51;69.49
74722;BME280;63470;49.826;6.740;2022-10-17T05:03:04;100584.86;;;10.48;69.43
74722;BME280;63470;49.826;6.740;2022-10-17T05:05:38;100580.94;;;10.43;69.47
74722;BME280;63470;49.826;6.740;2022-10-17T05:08:09;100591.88;;;10.40;69.49
74722;BME280;63470;49.826;6.740;2022-10-17T05:10:42;100592.75;;;10.34;69.59
74722;BME280;63470;49.826;6.740;2022-10-17T05:13:11;100591.22;;;10.29;69.74
74722;BME280;63470;49.826;6.740;2022-10-17T05:15:39;100598.66;;;10.26;69.79
74722;BME280;63470;49.826;6.740;2022-10-17T05:18:12;100597.94;;;10.22;69.91
74722;BME280;63470;49.826;6.740;2022-10-17T05:20:43;100597.86;;;10.23;69.92
74722;BME280;63470;49.826;6.740;2022-10-17T05:23:10;100601.38;;;10.27;69.84
74722;BME280;63470;49.826;6.740;2022-10-17T05:25:40;100600.38;;;10.30;69.73
74722;BME280;63470;49.826;6.740;2022-10-17T05:28:12;100597.86;;;10.33;69.65
74722;BME280;63470;49.826;6.740;2022-10-17T05:30:39;100599.17;;;10.36;69.62
74722;BME280;63470;49.826;6.740;2022-10-17T05:33:14;100595.06;;;10.41;69.53
74722;BME280;63470;49.826;6.740;2022-10-17T05:35:43;100595.34;;;10.44;69.49
74722;BME280;63470;49.826;6.740;2022-10-17T05:38:10;100596.51;;;10.45;69.46
74722;BME280;63470;49.826;6.740;2022-10-17T05:40:43;100599.87;;;10.47;69.42
74722;BME280;63470;49.826;6.740;2022-10-17T05:43:11;100604.66;;;10.48;69.33
74722;BME280;63470;49.826;6.740;2022-10-17T05:45:44;100603.95;;;10.42;69.38
74722;BME280;63470;49.826;6.740;2022-10-17T05:48:14;100602.36;;;10.37;69.47
74722;BME280;63470;49.826;6.740;2022-10-17T05:50:44;100603.16;;;10.32;69.52
74722;BME280;63470;49.826;6.740;2022-10-17T05:53:15;100603.75;;;10.29;69.57
74722;BME280;63470;49.826;6.740;2022-10-17T05:55:42;100605.94;;;10.26;69.65
74722;BME280;63470;49.826;6.740;2022-10-17T05:58:15;100612.55;;;10.24;69.72
74722;BME280;63470;49.826;6.740;2022-10-17T06:00:46;100615.29;;;10.22;69.77
74722;BME280;63470;49.826;6.740;2022-10-17T06:03:17;100617.18;;;10.21;69.83
74722;BME280;63470;49.826;6.740;2022-10-17T06:05:47;100621.08;;;10.20;69.88
74722;BME280;63470;49.826;6.740;2022-10-17T06:08:17;100630.94;;;10.23;69.85
74722;BME280;63470;49.826;6.740;2022-10-17T06:10:50;100633.53;;;10.29;69.70
74722;BME280;63470;49.826;6.740;2022-10-17T06:13:18;100630.29;;;10.31;69.67
74722;BME280;63470;49.826;6.740;2022-10-17T06:15:46;100636.53;;;10.36;69.59
74722;BME280;63470;49.826;6.740;2022-10-17T06:18:20;100637.22;;;10.41;69.54
74722;BME280;63470;49.826;6.740;2022-10-17T06:20:50;100636.94;;;10.46;69.42
74722;BME280;63470;49.826;6.740;2022-10-17T06:23:23;100643.56;;;10.52;69.43
74722;BME280;63470;49.826;6.740;2022-10-17T06:25:48;100646.70;;;10.59;69.40
74722;BME280;63470;49.826;6.740;2022-10-17T06:28:18;100653.64;;;10.68;69.37
74722;BME280;63470;49.826;6.740;2022-10-17T06:30:49;100658.85;;;10.76;69.33
74722;BME280;63470;49.826;6.740;2022-10-17T06:33:23;100655.44;;;10.86;69.28
74722;BME280;63470;49.826;6.740;2022-10-17T06:35:51;100661.34;;;10.98;69.20
74722;BME280;63470;49.826;6.740;2022-10-17T06:38:21;100661.73;;;11.09;69.05
74722;BME280;63470;49.826;6.740;2022-10-17T06:40:53;100662.08;;;11.20;69.01
74722;BME280;63470;49.826;6.740;2022-10-17T06:43:22;100672.30;;;11.30;69.01
74722;BME280;63470;49.826;6.740;2022-10-17T06:45:57;100672.64;;;11.41;69.04
74722;BME280;63470;49.826;6.740;2022-10-17T06:48:25;100673.23;;;11.54;69.03
74722;BME280;63470;49.826;6.740;2022-10-17T06:50:57;100682.25;;;11.68;69.03
74722;BME280;63470;49.826;6.740;2022-10-17T06:53:27;100684.13;;;11.77;68.88
74722;BME280;63470;49.826;6.740;2022-10-17T06:56:00;100682.39;;;11.84;68.75
74722;BME280;63470;49.826;6.740;2022-10-17T06:58:30;100682.01;;;11.88;68.69
74722;BME280;63470;49.826;6.740;2022-10-17T07:00:59;100684.43;;;11.91;68.68
74722;BME280;63470;49.826;6.740;2022-10-17T07:03:31;100688.20;;;11.94;68.70
74722;BME280;63470;49.826;6.740;2022-10-17T07:05:57;100680.27;;;11.98;68.77
74722;BME280;63470;49.826;6.740;2022-10-17T07:08:27;100676.75;;;12.08;68.79
74722;BME280;63470;49.826;6.740;2022-10-17T07:11:09;100675.21;;;12.21;68.86
74722;BME280;63470;49.826;6.740;2022-10-17T07:13:36;100681.06;;;12.34;69.05
74722;BME280;63470;49.826;6.740;2022-10-17T07:16:01;100682.45;;;12.50;69.10
74722;BME280;63470;49.826;6.740;2022-10-17T07:18:33;100687.27;;;12.63;69.14
74722;BME280;63470;49.826;6.740;2022-10-17T07:21:03;100690.66;;;12.74;69.08
74722;BME280;63470;49.826;6.740;2022-10-17T07:23:40;100691.66;;;12.78;69.19
74722;BME280;63470;49.826;6.740;2022-10-17T07:26:08;100692.12;;;12.83;69.21
74722;BME280;63470;49.826;6.740;2022-10-17T07:28:36;100689.78;;;12.90;69.13
74722;BME280;63470;49.826;6.740;2022-10-17T07:31:05;100701.45;;;12.99;69.03
74722;BME280;63470;49.826;6.740;2022-10-17T07:33:38;100708.25;;;13.14;68.90
74722;BME280;63470;49.826;6.740;2022-10-17T07:36:04;100702.81;;;13.37;68.68
74722;BME280;63470;49.826;6.740;2022-10-17T07:38:36;100705.12;;;13.75;68.21
74722;BME280;63470;49.826;6.740;2022-10-17T07:41:08;100716.12;;;14.02;68.24
74722;BME280;63470;49.826;6.740;2022-10-17T07:43:41;100718.24;;;14.32;68.20
74722;BME280;63470;49.826;6.740;2022-10-17T07:46:08;100730.77;;;14.50;68.44
74722;BME280;63470;49.826;6.740;2022-10-17T07:48:39;100731.40;;;14.94;67.92
74722;BME280;63470;49.826;6.740;2022-10-17T07:51:11;100724.05;;;15.14;67.51
74722;BME280;63470;49.826;6.740;2022-10-17T07:53:42;100719.98;;;15.38;67.27
74722;BME280;63470;49.826;6.740;2022-10-17T07:56:11;100721.36;;;15.95;66.21
74722;BME280;63470;49.826;6.740;2022-10-17T07:58:41;100720.55;;;16.13;65.91
74722;BME280;63470;49.826;6.740;2022-10-17T08:01:16;100714.56;;;16.28;65.85
74722;BME280;63470;49.826;6.740;2022-10-17T08:03:40;100713.95;;;16.61;65.33
74722;BME280;63470;49.826;6.740;2022-10-17T08:06:11;100711.64;;;16.78;65.63
74722;BME280;63470;49.826;6.740;2022-10-17T08:08:43;100707.06;;;16.90;65.63
74722;BME280;63470;49.826;6.740;2022-10-17T08:11:13;100706.36;;;16.99;65.72
74722;BME280;63470;49.826;6.740;2022-10-17T08:13:43;100700.84;;;17.31;65.35
74722;BME280;63470;49.826;6.740;2022-10-17T08:16:14;100707.36;;;17.70;64.29
74722;BME280;63470;49.826;6.740;2022-10-17T08:18:43;100706.69;;;17.66;64.32
74722;BME280;63470;49.826;6.740;2022-10-17T08:21:16;100716.30;;;17.75;64.51
74722;BME280;63470;49.826;6.740;2022-10-17T08:23:46;100720.00;;;17.80;64.93
74722;BME280;63470;49.826;6.740;2022-10-17T08:26:18;100716.78;;;17.92;66.58
74722;BME280;63470;49.826;6.740;2022-10-17T08:28:48;100718.00;;;18.11;67.29
74722;BME280;63470;49.826;6.740;2022-10-17T08:31:21;100716.55;;;18.42;66.88
74722;BME280;63470;49.826;6.740;2022-10-17T08:33:48;100716.99;;;18.73;66.65
74722;BME280;63470;49.826;6.740;2022-10-17T08:36:18;100715.33;;;19.52;66.31
74722;BME280;63470;49.826;6.740;2022-10-17T08:38:48;100716.56;;;20.27;65.88
74722;BME280;63470;49.826;6.740;2022-10-17T08:46:19;100716.92;;;21.42;63.94
74722;BME280;63470;49.826;6.740;2022-10-17T08:48:50;100722.16;;;21.83;63.11
74722;BME280;63470;49.826;6.740;2022-10-17T08:51:25;100722.16;;;22.18;62.72
74722;BME280;63470;49.826;6.740;2022-10-17T08:53:56;100721.93;;;22.60;62.31
74722;BME280;63470;49.826;6.740;2022-10-17T08:56:39;100730.11;;;23.33;61.88
74722;BME280;63470;49.826;6.740;2022-10-17T08:58:52;100732.19;;;24.03;61.62
74722;BME280;63470;49.826;6.740;2022-10-17T09:01:47;100726.95;;;24.43;61.62
74722;BME280;63470;49.826;6.740;2022-10-17T09:04:14;100718.05;;;24.59;61.75
74722;BME280;63470;49.826;6.740;2022-10-17T09:06:35;100719.73;;;24.87;61.84
74722;BME280;63470;49.826;6.740;2022-10-17T09:11:52;100722.84;;;25.45;61.68
74722;BME280;63470;49.826;6.740;2022-10-17T09:16:45;100726.89;;;26.30;61.02
74722;BME280;63470;49.826;6.740;2022-10-17T09:19:11;100724.10;;;26.61;60.77
74722;BME280;63470;49.826;6.740;2022-10-17T09:21:41;100731.94;;;26.88;60.12
74722;BME280;63470;49.826;6.740;2022-10-17T09:23:58;100726.62;;;27.11;59.83
74722;BME280;63470;49.826;6.740;2022-10-17T09:26:25;100734.11;;;27.38;59.79
74722;BME280;63470;49.826;6.740;2022-10-17T09:28:58;100731.47;;;27.52;59.98
74722;BME280;63470;49.826;6.740;2022-10-17T09:31:33;100734.61;;;27.63;60.67
74722;BME280;63470;49.826;6.740;2022-10-17T09:34:01;100741.89;;;28.05;62.02
74722;BME280;63470;49.826;6.740;2022-10-17T09:36:29;100741.59;;;28.36;62.76
74722;BME280;63470;49.826;6.740;2022-10-17T09:38:59;100749.50;;;28.51;63.05
74722;BME280;63470;49.826;6.740;2022-10-17T09:41:35;100751.72;;;28.67;63.21
74722;BME280;63470;49.826;6.740;2022-10-17T09:44:20;100745.65;;;29.13;62.77
74722;BME280;63470;49.826;6.740;2022-10-17T09:46:36;100745.52;;;29.39;62.78
74722;BME280;63470;49.826;6.740;2022-10-17T09:49:04;100755.42;;;29.63;62.58
74722;BME280;63470;49.826;6.740;2022-10-17T09:51:31;100756.64;;;29.81;62.22
74722;BME280;63470;49.826;6.740;2022-10-17T09:54:05;100764.11;;;29.80;62.16
74722;BME280;63470;49.826;6.740;2022-10-17T09:56:56;100765.14;;;29.57;62.39
74722;BME280;63470;49.826;6.740;2022-10-17T09:59:03;100764.39;;;29.28;62.74
74722;BME280;63470;49.826;6.740;2022-10-17T10:01:34;100765.18;;;28.93;63.20
74722;BME280;63470;49.826;6.740;2022-10-17T10:04:11;100767.49;;;28.85;63.23
74722;BME280;63470;49.826;6.740;2022-10-17T10:06:34;100769.09;;;28.75;63.37
74722;BME280;63470;49.826;6.740;2022-10-17T10:09:21;100775.63;;;28.61;63.48
74722;BME280;63470;49.826;6.740;2022-10-17T10:11:48;100774.07;;;28.61;63.37
74722;BME280;63470;49.826;6.740;2022-10-17T10:14:10;100773.78;;;28.51;63.33
74722;BME280;63470;49.826;6.740;2022-10-17T10:16:41;100785.61;;;28.03;63.99
74722;BME280;63470;49.826;6.740;2022-10-17T10:19:31;100788.11;;;27.58;64.54
74722;BME280;63470;49.826;6.740;2022-10-17T10:21:53;100792.80;;;26.63;65.68
74722;BME280;63470;49.826;6.740;2022-10-17T10:24:12;100790.66;;;25.64;66.98
74722;BME280;63470;49.826;6.740;2022-10-17T10:26:46;100796.66;;;24.90;67.67
74722;BME280;63470;49.826;6.740;2022-10-17T10:29:25;100806.58;;;24.35;67.76
74722;BME280;63470;49.826;6.740;2022-10-17T10:31:41;100812.44;;;24.09;68.03
74722;BME280;63470;49.826;6.740;2022-10-17T10:34:23;100812.99;;;24.18;67.51
74722;BME280;63470;49.826;6.740;2022-10-17T10:36:43;100812.47;;;24.81;66.20
74722;BME280;63470;49.826;6.740;2022-10-17T10:41:46;100800.77;;;26.89;62.79
74722;BME280;63470;49.826;6.740;2022-10-17T10:44:15;100807.16;;;27.78;61.71
74722;BME280;63470;49.826;6.740;2022-10-17T10:46:43;100812.39;;;28.41;60.99
74722;BME280;63470;49.826;6.740;2022-10-17T10:49:29;100807.22;;;28.82;60.71
74722;BME280;63470;49.826;6.740;2022-10-17T10:51:47;100807.60;;;29.11;60.71
74722;BME280;63470;49.826;6.740;2022-10-17T10:54:21;100798.77;;;29.37;60.64
74722;BME280;63470;49.826;6.740;2022-10-17T10:56:46;100802.89;;;29.52;60.61
74722;BME280;63470;49.826;6.740;2022-10-17T10:59:27;100799.49;;;29.47;60.99
74722;BME280;63470;49.826;6.740;2022-10-17T11:06:49;100808.70;;;29.88;61.00
74722;BME280;63470;49.826;6.740;2022-10-17T11:09:44;100808.36;;;29.67;61.49
74722;BME280;63470;49.826;6.740;2022-10-17T11:11:53;100808.31;;;29.17;62.43
74722;BME280;63470;49.826;6.740;2022-10-17T11:14:34;100812.88;;;28.66;63.34
74722;BME280;63470;49.826;6.740;2022-10-17T11:16:56;100823.17;;;27.84;64.39
74722;BME280;63470;49.826;6.740;2022-10-17T11:19:37;100825.84;;;27.04;65.62
74722;BME280;63470;49.826;6.740;2022-10-17T11:22:06;100825.28;;;26.55;66.12
74722;BME280;63470;49.826;6.740;2022-10-17T11:24:26;100824.30;;;26.43;66.00
74722;BME280;63470;49.826;6.740;2022-10-17T11:26:59;100823.72;;;26.22;65.94
74722;BME280;63470;49.826;6.740;2022-10-17T11:29:22;100824.79;;;26.16;65.78
74722;BME280;63470;49.826;6.740;2022-10-17T11:31:52;100823.25;;;26.26;65.35
74722;BME280;63470;49.826;6.740;2022-10-17T11:34:25;100817.80;;;26.41;64.90
74722;BME280;63470;49.826;6.740;2022-10-17T11:36:55;100816.19;;;26.51;64.55
74722;BME280;63470;49.826;6.740;2022-10-17T11:41:58;100826.61;;;27.12;63.48
74722;BME280;63470;49.826;6.740;2022-10-17T11:44:31;100822.91;;;27.18;63.42
74722;BME280;63470;49.826;6.740;2022-10-17T11:47:00;100823.45;;;27.52;62.86
74722;BME280;63470;49.826;6.740;2022-10-17T11:49:33;100824.80;;;28.06;62.06
74722;BME280;63470;49.826;6.740;2022-10-17T11:52:05;100821.09;;;28.46;61.43
74722;BME280;63470;49.826;6.740;2022-10-17T11:54:30;100820.17;;;28.77;61.05
74722;BME280;63470;49.826;6.740;2022-10-17T11:57:27;100825.05;;;28.74;61.24
74722;BME280;63470;49.826;6.740;2022-10-17T12:02:02;100820.91;;;28.41;61.95
74722;BME280;63470;49.826;6.740;2022-10-17T12:05:01;100822.05;;;28.91;61.11
74722;BME280;63470;49.826;6.740;2022-10-17T12:07:20;100818.24;;;29.19;60.64
74722;BME280;63470;49.826;6.740;2022-10-17T12:09:50;100819.68;;;29.43;60.28
74722;BME280;63470;49.826;6.740;2022-10-17T12:12:00;100816.66;;;29.81;59.71
74722;BME280;63470;49.826;6.740;2022-10-17T12:14:45;100815.27;;;29.91;59.77
74722;BME280;63470;49.826;6.740;2022-10-17T12:17:00;100819.62;;;29.81;60.10
74722;BME280;63470;49.826;6.740;2022-10-17T12:19:36;100817.31;;;29.66;60.35
74722;BME280;63470;49.826;6.740;2022-10-17T12:22:23;100819.16;;;29.53;60.63
74722;BME280;63470;49.826;6.740;2022-10-17T12:24:41;100820.73;;;29.62;60.54
74722;BME280;63470;49.826;6.740;2022-10-17T12:27:36;100817.73;;;30.20;59.74
74722;BME280;63470;49.826;6.740;2022-10-17T12:29:31;100820.41;;;30.52;59.31
74722;BME280;63470;49.826;6.740;2022-10-17T12:32:11;100817.30;;;30.70;59.18
74722;BME280;63470;49.826;6.740;2022-10-17T12:34:33;100816.44;;;30.84;59.02
74722;BME280;63470;49.826;6.740;2022-10-17T12:37:04;100817.13;;;30.96;58.80
74722;BME280;63470;49.826;6.740;2022-10-17T12:39:40;100818.80;;;31.29;58.44
74722;BME280;63470;49.826;6.740;2022-10-17T12:42:28;100824.58;;;31.37;58.20
74722;BME280;63470;49.826;6.740;2022-10-17T12:44:35;100823.26;;;30.76;59.03
74722;BME280;63470;49.826;6.740;2022-10-17T12:47:26;100815.61;;;29.68;60.71
74722;BME280;63470;49.826;6.740;2022-10-17T12:49:43;100822.56;;;28.62;62.37
74722;BME280;63470;49.826;6.740;2022-10-17T12:52:22;100826.95;;;27.63;63.76
74722;BME280;63470;49.826;6.740;2022-10-17T12:57:26;100834.97;;;26.29;64.87
74722;BME280;63470;49.826;6.740;2022-10-17T12:59:42;100832.87;;;25.76;65.17
74722;BME280;63470;49.826;6.740;2022-10-17T13:02:21;100831.78;;;25.44;65.36
74722;BME280;63470;49.826;6.740;2022-10-17T13:04:40;100833.12;;;25.37;65.21
74722;BME280;63470;49.826;6.740;2022-10-17T13:07:19;100836.46;;;25.36;64.85
74722;BME280;63470;49.826;6.740;2022-10-17T13:09:42;100833.77;;;25.35;64.43
74722;BME280;63470;49.826;6.740;2022-10-17T13:12:22;100833.74;;;25.26;64.23
74722;BME280;63470;49.826;6.740;2022-10-17T13:14:42;100836.94;;;25.18;64.06
74722;BME280;63470;49.826;6.740;2022-10-17T13:17:29;100826.98;;;25.20;63.85
74722;BME280;63470;49.826;6.740;2022-10-17T13:19:44;100834.00;;;25.48;63.85
74722;BME280;63470;49.826;6.740;2022-10-17T13:22:17;100832.25;;;25.94;63.04
74722;BME280;63470;49.826;6.740;2022-10-17T13:24:45;100829.56;;;26.18;62.35
74722;BME280;63470;49.826;6.740;2022-10-17T13:29:45;100831.37;;;26.31;62.12
74722;BME280;63470;49.826;6.740;2022-10-17T13:32:16;100834.55;;;26.26;62.09
74722;BME280;63470;49.826;6.740;2022-10-17T13:37:17;100839.69;;;25.90;62.49
74722;BME280;63470;49.826;6.740;2022-10-17T13:39:49;100837.76;;;26.05;62.63
74722;BME280;63470;49.826;6.740;2022-10-17T13:42:23;100840.73;;;26.27;62.09
74722;BME280;63470;49.826;6.740;2022-10-17T13:44:49;100844.62;;;26.24;61.93
74722;BME280;63470;49.826;6.740;2022-10-17T13:47:24;100841.37;;;26.07;62.07
74722;BME280;63470;49.826;6.740;2022-10-17T13:49:51;100846.39;;;25.91;62.20
74722;BME280;63470;49.826;6.740;2022-10-17T13:52:23;100849.11;;;25.75;62.33
74722;BME280;63470;49.826;6.740;2022-10-17T13:54:53;100853.58;;;25.61;62.65
74722;BME280;63470;49.826;6.740;2022-10-17T13:57:25;100848.65;;;25.78;62.75
74722;BME280;63470;49.826;6.740;2022-10-17T13:59:56;100852.77;;;26.49;61.44